createdAt,value
2017-10-10T00:00:21.320Z,67.10
2017-10-10T00:02:49.291Z,67.50
2017-10-10T00:05:17.263Z,66.50
2017-10-10T00:07:44.412Z,67.00
2017-10-10T00:10:12.388Z,67.60
2017-10-10T00:12:41.084Z,67.20
2017-10-10T00:15:09.039Z,67.90
2017-10-10T00:17:36.179Z,67.90
2017-10-10T00:20:04.111Z,67.60
2017-10-10T00:22:32.062Z,67.80
2017-10-10T00:24:59.208Z,67.10
2017-10-10T00:27:27.300Z,67.60
2017-10-10T00:29:55.352Z,67.70
2017-10-10T00:32:23.299Z,66.90
2017-10-10T00:34:51.212Z,66.90
2017-10-10T00:37:19.294Z,66.90
2017-10-10T00:39:46.439Z,68.30
2017-10-10T00:42:14.364Z,66.70
2017-10-10T00:44:43.215Z,65.80
2017-10-10T00:47:10.367Z,66.50
2017-10-10T00:49:37.546Z,66.20
2017-10-10T00:52:04.687Z,67.60
2017-10-10T00:54:31.859Z,67.20
2017-10-10T00:57:00.578Z,68.60
2017-10-10T00:59:27.728Z,68.50
2017-10-10T01:01:55.457Z,67.40
2017-10-10T01:04:22.603Z,67.70
2017-10-10T01:06:49.792Z,68.30
2017-10-10T01:09:16.940Z,68.70
2017-10-10T01:11:44.999Z,68.20
2017-10-10T01:14:12.968Z,69.00
2017-10-10T01:16:40.879Z,68.50
2017-10-10T01:19:08.028Z,68.50
2017-10-10T01:21:35.199Z,68.40
2017-10-10T01:24:02.390Z,68.50
2017-10-10T01:26:30.302Z,68.70
2017-10-10T01:28:57.449Z,68.70
2017-10-10T01:31:24.639Z,68.00
2017-10-10T01:33:51.780Z,69.20
2017-10-10T01:36:18.971Z,68.30
2017-10-10T01:38:46.879Z,67.90
2017-10-10T01:41:14.109Z,67.90
2017-10-10T01:43:41.290Z,68.20
2017-10-10T01:46:08.472Z,68.20
2017-10-10T01:48:35.627Z,68.30
2017-10-10T01:51:02.813Z,69.40
2017-10-10T01:53:30.004Z,68.30
2017-10-10T01:55:57.152Z,68.10
2017-10-10T01:58:25.059Z,69.20
2017-10-10T02:00:53.009Z,68.50
2017-10-10T02:03:20.155Z,68.60
2017-10-10T02:05:47.331Z,68.40
2017-10-10T02:08:15.249Z,68.60
2017-10-10T02:10:42.447Z,68.60
2017-10-10T02:13:10.366Z,68.60
2017-10-10T02:15:37.524Z,68.50
2017-10-10T02:18:04.712Z,68.90
2017-10-10T02:20:31.860Z,68.00
2017-10-10T02:22:59.000Z,68.60
2017-10-10T02:25:26.184Z,68.00
2017-10-10T02:27:54.135Z,68.30
2017-10-10T02:30:21.285Z,68.30
2017-10-10T02:32:49.240Z,68.50
2017-10-10T02:35:16.387Z,68.50
2017-10-10T02:37:43.592Z,67.90
2017-10-10T02:40:10.781Z,68.10
2017-10-10T02:42:37.932Z,67.40
2017-10-10T02:45:05.080Z,68.10
2017-10-10T02:47:33.024Z,69.10
2017-10-10T02:50:00.176Z,69.00
2017-10-10T02:52:27.371Z,68.70
2017-10-10T02:54:54.516Z,68.60
2017-10-10T02:57:21.669Z,68.20
2017-10-10T02:59:48.858Z,68.30
2017-10-10T03:02:16.767Z,68.70
2017-10-10T03:04:43.919Z,68.60
2017-10-10T03:07:11.108Z,67.40
2017-10-10T03:09:38.257Z,67.70
2017-10-10T03:12:05.447Z,68.40
2017-10-10T03:14:32.596Z,68.30
2017-10-10T03:16:59.799Z,68.70
2017-10-10T03:19:26.942Z,67.80
2017-10-10T03:21:54.087Z,66.10
2017-10-10T03:24:21.269Z,66.10
2017-10-10T03:26:48.416Z,66.70
2017-10-10T03:29:15.614Z,67.20
2017-10-10T03:31:42.764Z,66.60
2017-10-10T03:34:09.928Z,67.50
2017-10-10T03:36:37.110Z,68.00
2017-10-10T03:39:04.263Z,68.10
2017-10-10T03:41:31.449Z,68.20
2017-10-10T03:43:58.604Z,68.80
2017-10-10T03:46:26.555Z,69.50
2017-10-10T03:48:54.473Z,69.40
2017-10-10T03:51:21.624Z,69.20
2017-10-10T03:53:48.806Z,69.40
2017-10-10T03:56:15.948Z,68.70
2017-10-10T03:58:43.142Z,68.20
2017-10-10T04:01:11.051Z,69.40
2017-10-10T04:03:38.204Z,69.50
2017-10-10T04:06:05.389Z,69.50
2017-10-10T04:08:32.536Z,69.90
2017-10-10T04:10:59.719Z,69.30
2017-10-10T04:13:27.631Z,69.30
2017-10-10T04:15:54.808Z,69.20
2017-10-10T04:18:21.968Z,69.40
2017-10-10T04:20:49.146Z,69.40
2017-10-10T04:23:16.321Z,69.70
2017-10-10T04:25:43.465Z,68.70
2017-10-10T04:28:10.640Z,68.70
2017-10-10T04:30:37.787Z,67.50
2017-10-10T04:33:04.971Z,69.80
2017-10-10T04:35:32.155Z,69.60
2017-10-10T04:37:59.344Z,68.60
2017-10-10T04:40:26.497Z,67.60
2017-10-10T04:42:53.656Z,65.60
2017-10-10T04:45:20.834Z,65.20
2017-10-10T04:47:48.022Z,64.70
2017-10-10T04:50:16.643Z,63.40
2017-10-10T04:52:44.592Z,64.10
2017-10-10T04:55:11.736Z,64.10
2017-10-10T04:57:38.923Z,64.00
2017-10-10T05:00:06.068Z,63.90
2017-10-10T05:02:33.247Z,64.00
2017-10-10T05:05:00.395Z,64.70
2017-10-10T05:07:27.583Z,63.60
2017-10-10T05:09:54.728Z,63.30
2017-10-10T05:12:21.875Z,63.80
2017-10-10T05:14:49.052Z,64.10
2017-10-10T05:17:16.204Z,64.00
2017-10-10T05:19:43.388Z,64.10
2017-10-10T05:22:10.535Z,64.10
2017-10-10T05:24:37.731Z,63.70
2017-10-10T05:27:05.644Z,64.00
2017-10-10T05:29:32.791Z,64.00
2017-10-10T05:31:59.966Z,64.00
2017-10-10T05:34:27.117Z,64.00
2017-10-10T05:36:54.295Z,64.10
2017-10-10T05:39:22.241Z,63.80
2017-10-10T05:41:49.388Z,63.80
2017-10-10T05:44:16.572Z,63.80
2017-10-10T05:46:44.532Z,63.70
2017-10-10T05:49:12.484Z,63.80
2017-10-10T05:51:39.685Z,63.70
2017-10-10T05:54:06.865Z,64.20
2017-10-10T05:56:34.016Z,65.00
2017-10-10T05:59:01.194Z,64.20
2017-10-10T06:01:28.349Z,64.10
2017-10-10T06:03:55.539Z,63.70
2017-10-10T06:06:22.696Z,64.20
2017-10-10T06:08:49.843Z,63.80
2017-10-10T06:11:17.038Z,63.80
2017-10-10T06:13:44.192Z,64.10
2017-10-10T06:16:11.379Z,64.10
2017-10-10T06:18:39.339Z,64.00
2017-10-10T06:21:07.257Z,64.00
2017-10-10T06:23:34.407Z,64.00
2017-10-10T06:26:01.601Z,64.00
2017-10-10T06:28:28.760Z,64.10
2017-10-10T06:30:56.728Z,64.30
2017-10-10T06:33:24.644Z,64.40
2017-10-10T06:35:51.801Z,64.40
2017-10-10T06:38:19.000Z,64.50
2017-10-10T06:40:46.915Z,65.30
2017-10-10T06:43:14.066Z,65.30
2017-10-10T06:45:41.268Z,65.30
2017-10-10T06:48:09.192Z,64.30
2017-10-10T06:50:36.342Z,64.20
2017-10-10T06:53:04.340Z,64.40
2017-10-10T06:55:31.489Z,64.50
2017-10-10T06:57:58.684Z,64.50
2017-10-10T07:00:25.828Z,64.50
2017-10-10T07:02:53.744Z,64.50
2017-10-10T07:05:20.928Z,64.40
2017-10-10T07:07:48.081Z,64.30
2017-10-10T07:10:15.436Z,63.70
2017-10-10T07:12:42.590Z,64.40
2017-10-10T07:15:10.512Z,64.60
2017-10-10T07:17:37.696Z,64.50
2017-10-10T07:20:04.844Z,64.50
2017-10-10T07:22:32.043Z,64.50
2017-10-10T07:24:59.196Z,64.50
2017-10-10T07:27:26.344Z,64.10
2017-10-10T07:29:53.525Z,64.10
2017-10-10T07:32:20.681Z,64.40
2017-10-10T07:34:47.869Z,64.50
2017-10-10T07:37:15.024Z,64.60
2017-10-10T07:39:42.979Z,64.70
2017-10-10T07:42:10.136Z,64.70
2017-10-10T07:44:37.320Z,64.20
2017-10-10T07:47:04.505Z,64.30
2017-10-10T07:49:31.685Z,64.50
2017-10-10T07:51:58.873Z,64.70
2017-10-10T07:54:26.055Z,64.80
2017-10-10T07:56:53.249Z,64.80
2017-10-10T07:59:20.404Z,64.70
2017-10-10T08:01:48.324Z,64.50
2017-10-10T08:04:15.508Z,64.50
2017-10-10T08:06:42.661Z,64.20
2017-10-10T08:09:09.840Z,64.50
2017-10-10T08:11:37.759Z,64.60
2017-10-10T08:14:04.976Z,64.60
2017-10-10T08:16:32.168Z,64.70
2017-10-10T08:18:59.319Z,64.70
2017-10-10T08:21:26.501Z,64.70
2017-10-10T08:23:54.452Z,64.70
2017-10-10T08:26:21.599Z,64.70
2017-10-10T08:28:48.784Z,64.60
2017-10-10T08:31:16.701Z,64.70
2017-10-10T08:33:43.884Z,64.70
2017-10-10T08:36:11.045Z,64.70
2017-10-10T08:38:39.001Z,64.60
2017-10-10T08:41:06.148Z,64.60
2017-10-10T08:43:33.340Z,65.30
2017-10-10T08:46:01.255Z,64.70
2017-10-10T08:48:28.401Z,64.70
2017-10-10T08:50:55.597Z,64.80
2017-10-10T08:53:23.510Z,65.00
2017-10-10T08:55:50.663Z,65.00
2017-10-10T08:58:17.839Z,64.90
2017-10-10T09:00:45.022Z,64.90
2017-10-10T09:03:12.975Z,65.40
2017-10-10T09:05:40.161Z,65.40
2017-10-10T09:08:07.345Z,64.80
2017-10-10T09:10:34.494Z,64.80
2017-10-10T09:13:01.676Z,65.00
2017-10-10T09:15:28.876Z,65.00
2017-10-10T09:17:56.036Z,64.90
2017-10-10T09:20:23.223Z,64.90
2017-10-10T09:22:50.430Z,65.40
2017-10-10T09:25:17.576Z,64.90
2017-10-10T09:27:44.725Z,65.00
2017-10-10T09:30:11.914Z,65.00
2017-10-10T09:32:39.104Z,65.00
2017-10-10T09:35:07.029Z,65.70
2017-10-10T09:37:34.216Z,65.10
2017-10-10T09:40:01.405Z,65.00
2017-10-10T09:42:28.560Z,64.70
2017-10-10T09:44:55.753Z,65.00
2017-10-10T09:47:22.913Z,65.00
2017-10-10T09:49:50.060Z,65.10
2017-10-10T09:52:17.259Z,65.30
2017-10-10T09:54:44.403Z,65.20
2017-10-10T09:57:12.317Z,65.00
2017-10-10T09:59:39.508Z,65.00
2017-10-10T10:02:07.418Z,65.10
2017-10-10T10:04:34.583Z,65.10
2017-10-10T10:09:35.300Z,65.30
2017-10-10T10:12:02.488Z,65.40
2017-10-10T10:14:29.675Z,65.60
2017-10-10T10:16:57.652Z,65.40
2017-10-10T10:19:25.574Z,65.50
2017-10-10T10:21:52.721Z,65.40
2017-10-10T10:24:19.912Z,65.40
2017-10-10T10:26:47.110Z,65.30
2017-10-10T10:29:14.260Z,65.30
2017-10-10T10:31:41.407Z,65.40
2017-10-10T10:34:08.582Z,65.40
2017-10-10T10:36:35.731Z,65.40
2017-10-10T10:39:02.917Z,65.30
2017-10-10T10:41:30.063Z,65.60
2017-10-10T10:43:57.245Z,65.60
2017-10-10T10:46:25.164Z,65.70
2017-10-10T10:48:52.353Z,65.60
2017-10-10T10:51:20.276Z,65.70
2017-10-10T10:53:47.456Z,65.70
2017-10-10T10:56:14.652Z,65.70
2017-10-10T10:58:41.841Z,65.60
2017-10-10T11:01:08.989Z,65.70
2017-10-10T11:03:36.176Z,65.80
2017-10-10T11:06:03.328Z,65.90
2017-10-10T11:08:31.301Z,65.90
2017-10-10T11:10:59.220Z,66.50
2017-10-10T11:13:26.371Z,65.80
2017-10-10T11:15:53.566Z,65.60
2017-10-10T11:18:20.725Z,65.90
2017-10-10T11:20:48.642Z,66.00
2017-10-10T11:23:15.839Z,66.00
2017-10-10T11:25:43.764Z,66.10
2017-10-10T11:28:10.917Z,66.00
2017-10-10T11:30:38.099Z,66.00
2017-10-10T11:33:05.299Z,65.90
2017-10-10T11:35:32.452Z,66.30
2017-10-10T11:37:59.605Z,66.00
2017-10-10T11:40:26.787Z,66.00
2017-10-10T11:42:53.949Z,66.10
2017-10-10T11:45:21.149Z,66.10
2017-10-10T11:47:48.311Z,66.10
2017-10-10T11:50:18.799Z,66.10
2017-10-10T11:52:46.758Z,65.80
2017-10-10T11:55:13.908Z,66.00
2017-10-10T11:57:41.104Z,66.10
2017-10-10T12:00:08.256Z,66.20
2017-10-10T12:02:35.411Z,66.20
2017-10-10T12:05:02.597Z,66.20
2017-10-10T12:07:29.751Z,66.30
2017-10-10T12:09:56.933Z,66.10
2017-10-10T12:12:24.852Z,66.10
2017-10-10T12:14:52.048Z,66.10
2017-10-10T12:17:19.245Z,66.10
2017-10-10T12:19:46.396Z,66.20
2017-10-10T12:22:13.575Z,66.30
2017-10-10T12:24:40.772Z,66.30
2017-10-10T12:27:08.687Z,66.00
2017-10-10T12:29:35.839Z,66.00
2017-10-10T12:32:04.343Z,66.20
2017-10-10T12:34:31.491Z,66.20
2017-10-10T12:36:58.640Z,66.40
2017-10-10T12:39:26.585Z,66.60
2017-10-10T12:41:53.739Z,66.50
2017-10-10T12:44:20.941Z,66.50
2017-10-10T12:46:48.856Z,66.30
2017-10-10T12:49:16.004Z,66.30
2017-10-10T12:51:43.188Z,66.10
2017-10-10T12:54:10.340Z,66.30
2017-10-10T12:56:37.522Z,66.30
2017-10-10T12:59:05.439Z,66.30
2017-10-10T13:01:32.622Z,66.30
2017-10-10T13:03:59.817Z,66.30
2017-10-10T13:06:27.016Z,66.30
2017-10-10T13:08:54.163Z,66.40
2017-10-10T13:11:21.318Z,66.20
2017-10-10T13:13:48.500Z,66.50
2017-10-10T13:16:16.416Z,66.60
2017-10-10T13:18:43.603Z,66.40
2017-10-10T13:21:10.785Z,66.60
2017-10-10T13:23:37.974Z,66.60
2017-10-10T13:26:05.126Z,66.60
2017-10-10T13:28:32.314Z,66.60
2017-10-10T13:31:00.253Z,66.70
2017-10-10T13:33:27.404Z,66.70
2017-10-10T13:35:54.596Z,67.20
2017-10-10T13:38:22.511Z,66.60
2017-10-10T13:40:49.693Z,66.60
2017-10-10T13:43:16.838Z,66.60
2017-10-10T13:45:44.031Z,66.60
2017-10-10T13:48:11.942Z,66.50
2017-10-10T13:50:39.096Z,66.40
2017-10-10T13:53:06.279Z,66.90
2017-10-10T13:55:33.464Z,66.80
2017-10-10T13:58:00.663Z,66.70
2017-10-10T14:00:27.824Z,66.70
2017-10-10T14:02:54.972Z,66.80
2017-10-10T14:05:22.192Z,66.60
2017-10-10T14:07:49.348Z,66.60
2017-10-10T14:10:16.941Z,66.60
2017-10-10T14:12:44.087Z,67.00
2017-10-10T14:15:11.237Z,66.90
2017-10-10T14:17:38.420Z,66.80
2017-10-10T14:20:06.339Z,66.70
2017-10-10T14:22:33.531Z,66.70
2017-10-10T14:25:01.448Z,66.70
2017-10-10T14:27:28.599Z,66.70
2017-10-10T14:29:55.780Z,66.70
2017-10-10T14:32:22.970Z,67.00
2017-10-10T14:34:50.151Z,67.20
2017-10-10T14:37:17.302Z,66.80
2017-10-10T14:39:44.454Z,66.80
2017-10-10T14:42:11.646Z,66.70
2017-10-10T14:44:38.790Z,66.80
2017-10-10T14:47:05.971Z,66.70
2017-10-10T14:49:33.919Z,67.00
2017-10-10T14:52:01.065Z,67.00
2017-10-10T14:54:28.262Z,67.20
2017-10-10T14:56:55.419Z,66.90
2017-10-10T14:59:22.575Z,66.80
2017-10-10T15:01:49.759Z,67.40
2017-10-10T15:04:16.942Z,67.20
2017-10-10T15:06:45.879Z,67.20
2017-10-10T15:09:13.057Z,67.20
2017-10-10T15:11:40.205Z,67.10
2017-10-10T15:14:07.380Z,67.00
2017-10-10T15:16:34.527Z,66.90
2017-10-10T15:19:01.708Z,66.90
2017-10-10T15:21:28.856Z,66.80
2017-10-10T15:23:56.059Z,66.70
2017-10-10T15:26:23.311Z,66.70
2017-10-10T15:28:50.464Z,66.60
2017-10-10T15:31:17.652Z,67.00
2017-10-10T15:33:45.563Z,67.00
2017-10-10T15:36:12.744Z,66.90
2017-10-10T15:38:39.915Z,66.90
2017-10-10T15:41:07.828Z,67.00
2017-10-10T15:43:36.808Z,66.90
2017-10-10T15:46:03.963Z,66.90
2017-10-10T15:48:31.154Z,66.90
2017-10-10T15:50:58.308Z,66.80
2017-10-10T15:53:25.460Z,67.20
2017-10-10T15:55:52.650Z,68.00
2017-10-10T15:58:20.569Z,69.00
2017-10-10T16:00:47.769Z,69.00
2017-10-10T16:03:15.685Z,68.00
2017-10-10T16:05:42.837Z,68.00
2017-10-10T16:08:10.024Z,67.80
2017-10-10T16:10:37.951Z,67.40
2017-10-10T16:13:05.148Z,67.40
2017-10-10T16:15:33.101Z,67.30
2017-10-10T16:18:00.284Z,67.10
2017-10-10T16:20:28.200Z,67.00
2017-10-10T16:22:55.387Z,67.00
2017-10-10T16:25:22.540Z,67.00
2017-10-10T16:27:50.487Z,67.80
2017-10-10T16:30:17.642Z,67.00
2017-10-10T16:32:44.826Z,67.10
2017-10-10T16:35:12.745Z,67.00
2017-10-10T16:37:39.933Z,67.00
2017-10-10T16:40:07.860Z,67.00
2017-10-10T16:42:35.047Z,67.00
2017-10-10T16:45:02.237Z,67.10
2017-10-10T16:47:30.300Z,67.10
2017-10-10T16:49:57.496Z,67.00
2017-10-10T16:52:24.644Z,67.00
2017-10-10T16:54:51.796Z,67.00
2017-10-10T16:57:19.002Z,67.00
2017-10-10T16:59:46.162Z,67.00
2017-10-10T17:02:13.317Z,67.00
2017-10-10T17:04:40.505Z,67.30
2017-10-10T17:07:07.703Z,67.20
2017-10-10T17:09:35.619Z,67.20
2017-10-10T17:12:02.772Z,67.20
2017-10-10T17:14:29.951Z,67.30
2017-10-10T17:16:57.141Z,67.10
2017-10-10T17:19:24.331Z,67.00
2017-10-10T17:21:52.247Z,66.80
2017-10-10T17:24:20.198Z,66.80
2017-10-10T17:26:47.351Z,66.90
2017-10-10T17:29:14.551Z,67.40
2017-10-10T17:31:41.713Z,67.60
2017-10-10T17:34:08.867Z,66.90
2017-10-10T17:36:36.066Z,66.90
2017-10-10T17:39:03.988Z,66.90
2017-10-10T17:41:31.142Z,66.90
2017-10-10T17:43:58.333Z,66.90
2017-10-10T17:46:26.256Z,67.00
2017-10-10T17:48:53.440Z,67.00
2017-10-10T17:51:20.593Z,67.00
2017-10-10T17:53:47.810Z,67.10
2017-10-10T17:56:14.964Z,67.10
2017-10-10T17:58:42.127Z,67.10
2017-10-10T18:01:09.329Z,67.10
2017-10-10T18:03:37.283Z,67.00
2017-10-10T18:06:05.216Z,67.00
2017-10-10T18:08:33.234Z,67.00
2017-10-10T18:11:00.955Z,66.90
2017-10-10T18:13:28.140Z,67.00
2017-10-10T18:15:56.293Z,67.20
2017-10-10T18:18:23.517Z,67.20
2017-10-10T18:20:51.707Z,67.60
2017-10-10T18:23:20.929Z,67.10
2017-10-10T18:25:49.392Z,67.70
2017-10-10T18:28:17.787Z,67.40
2017-10-10T18:30:46.662Z,67.30
2017-10-10T18:33:15.387Z,67.40
2017-10-10T18:35:43.665Z,67.40
2017-10-10T18:38:11.953Z,67.20
2017-10-10T18:40:39.921Z,67.20
2017-10-10T18:43:08.396Z,67.20
2017-10-10T18:45:36.601Z,67.30
2017-10-10T18:48:04.664Z,67.20
2017-10-10T18:50:32.589Z,67.20
2017-10-10T18:53:00.807Z,67.20
2017-10-10T18:55:29.768Z,67.40
2017-10-10T18:57:58.773Z,67.40
2017-10-10T19:00:27.063Z,67.30
2017-10-10T19:02:55.428Z,67.30
2017-10-10T19:05:23.871Z,67.20
2017-10-10T19:07:52.836Z,67.80
2017-10-10T19:10:21.080Z,67.80
2017-10-10T19:12:49.373Z,67.50
2017-10-10T19:15:17.781Z,67.40
2017-10-10T19:17:46.774Z,67.80
2017-10-10T19:20:18.215Z,67.40
2017-10-10T19:22:46.663Z,67.40
2017-10-10T19:25:14.752Z,67.40
2017-10-10T19:27:44.404Z,67.30
2017-10-10T19:30:13.441Z,67.10
2017-10-10T19:32:41.619Z,67.10
2017-10-10T19:35:09.816Z,67.10
2017-10-10T19:37:40.411Z,66.90
2017-10-10T19:40:08.695Z,67.00
2017-10-10T19:42:37.070Z,66.90
2017-10-10T19:45:04.842Z,67.00
2017-10-10T19:47:32.832Z,67.00
2017-10-10T19:50:00.865Z,67.00
2017-10-10T19:52:29.371Z,67.10
2017-10-10T19:54:56.741Z,67.10
2017-10-10T19:57:24.483Z,67.00
2017-10-10T19:59:52.544Z,67.00
2017-10-10T20:02:19.882Z,67.10
2017-10-10T20:04:47.320Z,67.00
2017-10-10T20:07:14.493Z,67.40
2017-10-10T20:09:41.861Z,67.10
2017-10-10T20:12:09.073Z,67.20
2017-10-10T20:14:36.307Z,67.20
2017-10-10T20:17:03.497Z,67.20
2017-10-10T20:19:31.475Z,67.20
2017-10-10T20:21:58.706Z,67.10
2017-10-10T20:24:25.864Z,67.20
2017-10-10T20:26:53.057Z,67.10
2017-10-10T20:29:22.152Z,67.50
2017-10-10T20:31:49.530Z,67.50
2017-10-10T20:34:17.528Z,67.40
2017-10-10T20:36:44.679Z,67.30
2017-10-10T20:39:11.892Z,67.30
2017-10-10T20:41:41.175Z,67.30
2017-10-10T20:44:13.504Z,67.30
2017-10-10T20:46:47.540Z,67.30
2017-10-10T20:49:15.555Z,67.70
2017-10-10T20:51:43.481Z,67.70
2017-10-10T20:54:10.627Z,67.70
2017-10-10T20:56:37.823Z,67.40
2017-10-10T20:59:05.860Z,67.40
2017-10-10T21:01:33.075Z,67.40
2017-10-10T21:04:00.276Z,67.40
2017-10-10T21:06:27.421Z,67.40
2017-10-10T21:08:54.631Z,67.40
2017-10-10T21:11:21.826Z,67.50
2017-10-10T21:13:48.975Z,68.50
2017-10-10T21:16:16.156Z,67.80
2017-10-10T21:18:44.075Z,67.50
2017-10-10T21:21:11.273Z,67.50
2017-10-10T21:23:39.243Z,67.50
2017-10-10T21:26:07.160Z,67.60
2017-10-10T21:28:34.307Z,67.60
2017-10-10T21:31:01.486Z,67.60
2017-10-10T21:33:28.659Z,67.60
2017-10-10T21:35:56.573Z,68.50
2017-10-10T21:38:23.729Z,67.80
2017-10-10T21:40:50.915Z,67.80
2017-10-10T21:43:18.132Z,67.90
2017-10-10T21:45:45.337Z,67.70
2017-10-10T21:48:13.296Z,67.70
2017-10-10T21:50:40.453Z,67.70
2017-10-10T21:53:08.417Z,68.20
2017-10-10T21:55:35.585Z,68.20
2017-10-10T21:58:03.656Z,68.20
2017-10-10T22:00:31.588Z,68.00
2017-10-10T22:02:58.787Z,68.00
2017-10-10T22:05:26.703Z,67.60
2017-10-10T22:07:53.852Z,67.60
2017-10-10T22:10:21.036Z,67.60
2017-10-10T22:12:48.188Z,67.50
2017-10-10T22:15:16.153Z,67.30
2017-10-10T22:17:43.359Z,67.30
2017-10-10T22:20:10.511Z,67.30
2017-10-10T22:22:37.662Z,67.20
2017-10-10T22:25:04.860Z,67.20
2017-10-10T22:27:32.016Z,67.20
2017-10-10T22:29:59.939Z,68.30
2017-10-10T22:32:27.125Z,67.60
2017-10-10T22:34:54.275Z,67.60
2017-10-10T22:37:21.455Z,67.60
2017-10-10T22:39:49.373Z,67.40
2017-10-10T22:42:16.562Z,67.40
2017-10-10T22:44:44.483Z,67.50
2017-10-10T22:47:11.665Z,67.50
2017-10-10T22:49:38.848Z,67.50
2017-10-10T22:52:06.764Z,67.80
2017-10-10T22:54:33.947Z,67.80
2017-10-10T22:57:01.095Z,67.70
2017-10-10T22:59:28.292Z,67.60
2017-10-10T23:01:55.439Z,67.60
2017-10-10T23:04:22.592Z,67.60
2017-10-10T23:06:49.777Z,67.70
2017-10-10T23:09:16.927Z,67.50
2017-10-10T23:11:44.881Z,68.20
2017-10-10T23:14:12.059Z,68.10
2017-10-10T23:16:39.208Z,67.90
2017-10-10T23:19:06.388Z,67.70
2017-10-10T23:21:34.304Z,67.60
2017-10-10T23:24:01.488Z,67.60
2017-10-10T23:26:28.671Z,67.70
2017-10-10T23:28:56.587Z,67.70
2017-10-10T23:31:23.779Z,67.70
2017-10-10T23:33:51.702Z,68.30
2017-10-10T23:36:18.906Z,68.20
2017-10-10T23:38:46.816Z,67.80
2017-10-10T23:41:13.965Z,67.80
2017-10-10T23:43:41.145Z,67.80
2017-10-10T23:46:08.298Z,67.70
2017-10-10T23:48:35.452Z,67.80
2017-10-10T23:51:02.643Z,67.90
2017-10-10T23:53:30.563Z,68.30
2017-10-10T23:55:57.720Z,68.20
2017-10-10T23:58:24.894Z,68.20
